Hovedside
METAR-TAF:

METAR-TAF

Lufthavner :

Kristianstad, Sverige

breddegrad: 55-55N, lengdegrad: 014-05E, høyde over havet: 23 m

Gjeldene værobservasjon

Denne rapporten ble laget for 1 time og 9 minutter siden, klokken 09:50 UTC
Vind 9 kt fra Vest-sørvest, skiftende mellom Sørvest og Nordvest
Temperatur 9°C
Luftfuktighet 43%
Trykk 1011 hPa
Sikt 10 km eller mer
Spredte skyer i en høyde av 4600 ft

METAR: ESMK 270950Z 25009KT 220V310 9999 SCT046 09/M03 Q1011

Tid: 12:59 (10:59 UTC)

Varsel

Denne rapporten ble laget for 2 timer og 58 minutter siden, klokken 08:01 UTC
Varsel gyldig fra 27. klokken 09 UTC til 27. klokken 18 UTC
Vind 10 kt fra Sørvest
Sikt 10 km eller mer
Spredte skyer i en høyde av 3000 ft
Midlertidig
fra 27. klokken 10 UTC til 27. klokken 18 UTC
Spredte skyer i en høyde av 3000 ft, Bygeskyer.
regnbyger

TAF: ESMK 270801Z 2709/2718 22010KT 9999 SCT030 TEMPO 2710/2718 SHRA SCT030CB

Værobservasjoner og værvarsel for over 4000 flyplasser (METAR- og TAF-rapporter).

Tilgjengelige stasjoner er representert av de røde og gule prikkene på kartet.

Hold musepekeren over prikken for å se navnet på stasjonen.

Klikk så for å se værobservasjoner og -varsler.

For å forandre kartet kan du klikke på den grønne knappen med svart kryss for å zoome inn, på den grønne knappen med strek for å zoome ut, eller på de grønne pilene for å se tilstøtende kart.


METAR-TAF: